Here is the Quick Look data you requested

The Data originates at the National Weather Service, and is made available here by the UAlbany Department of Atmospheric and Environmental Sciences

Surface Observations

PHBK 230956Z AUTO 12007KT 10SM -RA SCT120 20/20 A3004 RMK AO2 SLP175 P0001
 T02000200 402110189=
PHHI 230956Z AUTO 00000KT 10SM CLR 18/18 A3005 RMK AO2
 DZE00DZB07E41DZB47E48RAB48 SLP171 P0000 T01810179 402190178 RVRNO $=
PHJR 230953Z AUTO 00000KT 10SM -RA SCT110 19/18 A3007 RMK AO2 SLP187 P0002
 T01940183 402440194 TSNO=
PHKO 230953Z AUTO 26005KT 10SM FEW023 BKN038 OVC050 24/19 A3003 RMK AO2 SLP169
 T02440189 402780211 TSNO=
PHLI 230953Z AUTO 24004KT 10SM -RA BKN012 BKN025 OVC070 21/21 A3007 RMK AO2
 SLP181 P0001 T02060206 402280206 TSNO=
PHMK 230954Z AUTO 07005KT 10SM OVC085 21/17 A3007 RMK AO2 SLP185 T02060172
 402780189 TSNO $=
PHNG 230957Z 00000KT 6SM -RA BR OVC030 22/19 A3004 RMK AO2 SLP166 P0000
 T02170194 402440211 $=
PHNL 230953Z 34005KT 10SM -RA FEW024 BKN095 OVC120 21/18 A3005 RMK AO2 SLP176
 P0002 T02060183 402560206 $=
PHNY 230956Z AUTO 13005KT 10SM OVC025 19/17 A3011 RMK AO2 SLP177 T01940167
PHOG 230954Z AUTO 09004KT 10SM FEW110 21/18 A3004 RMK AO2 SLP178 T02060183
 402830167 TSNO=
PHTO 230953Z AUTO 23004KT 10SM CLR 22/17 A3009 RMK AO2 SLP189 T02170167
 403000217 TSNO=
PMDY 230956Z AUTO 34008KT 10SM FEW018 17/14 A3008 RMK AO2 SLP186 T01720139=